sensor_id;sensor_type;location;lat;lon;timestamp;pressure;altitude;pressure_sealevel;temperature;humidity
56241;BME280;42155;53.096;23.226;2024-02-14T00:00:23;100215.94;;;3.13;80.79
56241;BME280;42155;53.096;23.226;2024-02-14T00:02:24;100239.00;;;3.25;80.67
56241;BME280;42155;53.096;23.226;2024-02-14T00:04:24;100254.22;;;3.36;80.94
56241;BME280;42155;53.096;23.226;2024-02-14T00:06:24;100256.78;;;3.37;80.54
56241;BME280;42155;53.096;23.226;2024-02-14T00:08:25;100237.44;;;3.21;80.29
56241;BME280;42155;53.096;23.226;2024-02-14T00:10:25;100246.16;;;3.21;80.79
56241;BME280;42155;53.096;23.226;2024-02-14T00:12:25;100251.09;;;3.27;80.55
56241;BME280;42155;53.096;23.226;2024-02-14T00:14:26;100263.13;;;3.33;80.46
56241;BME280;42155;53.096;23.226;2024-02-14T00:16:28;100263.25;;;3.30;80.66
56241;BME280;42155;53.096;23.226;2024-02-14T00:18:28;100266.84;;;3.27;80.67
56241;BME280;42155;53.096;23.226;2024-02-14T00:20:29;100259.34;;;3.20;80.77
56241;BME280;42155;53.096;23.226;2024-02-14T00:22:30;100244.03;;;3.11;80.80
56241;BME280;42155;53.096;23.226;2024-02-14T00:24:30;100274.78;;;3.26;80.63
56241;BME280;42155;53.096;23.226;2024-02-14T00:26:31;100255.50;;;3.08;81.21
56241;BME280;42155;53.096;23.226;2024-02-14T00:28:31;100275.19;;;3.17;80.72
56241;BME280;42155;53.096;23.226;2024-02-14T00:30:32;100260.16;;;3.01;81.16
56241;BME280;42155;53.096;23.226;2024-02-14T00:32:32;100277.19;;;3.12;80.96
56241;BME280;42155;53.096;23.226;2024-02-14T00:34:33;100288.44;;;3.14;81.14
56241;BME280;42155;53.096;23.226;2024-02-14T00:36:33;100280.09;;;3.05;80.89
56241;BME280;42155;53.096;23.226;2024-02-14T00:38:34;100286.09;;;3.08;81.39
56241;BME280;42155;53.096;23.226;2024-02-14T00:40:34;100297.09;;;3.16;80.91
56241;BME280;42155;53.096;23.226;2024-02-14T00:42:34;100258.81;;;2.93;80.70
56241;BME280;42155;53.096;23.226;2024-02-14T00:44:35;100280.41;;;2.98;81.22
56241;BME280;42155;53.096;23.226;2024-02-14T00:46:35;100298.16;;;3.12;80.78
56241;BME280;42155;53.096;23.226;2024-02-14T00:48:35;100320.84;;;3.13;80.90
56241;BME280;42155;53.096;23.226;2024-02-14T00:50:36;100285.47;;;3.02;80.67
56241;BME280;42155;53.096;23.226;2024-02-14T00:52:36;100314.75;;;3.12;81.41
56241;BME280;42155;53.096;23.226;2024-02-14T00:54:37;100301.28;;;3.01;80.99
56241;BME280;42155;53.096;23.226;2024-02-14T00:56:37;100314.81;;;3.11;81.12
56241;BME280;42155;53.096;23.226;2024-02-14T00:58:38;100307.84;;;3.10;80.75
56241;BME280;42155;53.096;23.226;2024-02-14T01:00:38;100311.28;;;3.12;80.86
56241;BME280;42155;53.096;23.226;2024-02-14T01:02:39;100310.56;;;3.08;81.18
56241;BME280;42155;53.096;23.226;2024-02-14T01:04:39;100312.03;;;3.14;81.60
56241;BME280;42155;53.096;23.226;2024-02-14T01:06:39;100298.44;;;3.05;81.14
56241;BME280;42155;53.096;23.226;2024-02-14T01:08:40;100311.91;;;3.17;81.48
56241;BME280;42155;53.096;23.226;2024-02-14T01:10:40;100310.06;;;3.19;81.30
56241;BME280;42155;53.096;23.226;2024-02-14T01:12:41;100307.41;;;3.20;80.87
56241;BME280;42155;53.096;23.226;2024-02-14T01:14:41;100259.00;;;2.88;81.35
56241;BME280;42155;53.096;23.226;2024-02-14T01:16:42;100284.25;;;3.10;81.25
56241;BME280;42155;53.096;23.226;2024-02-14T01:18:43;100310.66;;;3.25;81.28
56241;BME280;42155;53.096;23.226;2024-02-14T01:20:43;100316.47;;;3.32;81.68
56241;BME280;42155;53.096;23.226;2024-02-14T01:22:44;100287.38;;;3.18;81.13
56241;BME280;42155;53.096;23.226;2024-02-14T01:24:44;100322.31;;;3.39;80.94
56241;BME280;42155;53.096;23.226;2024-02-14T01:26:44;100324.72;;;3.43;81.51
56241;BME280;42155;53.096;23.226;2024-02-14T01:28:45;100312.53;;;3.42;81.05
56241;BME280;42155;53.096;23.226;2024-02-14T01:30:45;100323.59;;;3.49;80.86
56241;BME280;42155;53.096;23.226;2024-02-14T01:32:46;100324.31;;;3.52;81.30
56241;BME280;42155;53.096;23.226;2024-02-14T01:34:46;100318.13;;;3.53;80.95
56241;BME280;42155;53.096;23.226;2024-02-14T01:36:47;100319.69;;;3.57;80.78
56241;BME280;42155;53.096;23.226;2024-02-14T01:38:48;100312.13;;;3.51;81.36
56241;BME280;42155;53.096;23.226;2024-02-14T01:40:48;100309.41;;;3.53;80.61
56241;BME280;42155;53.096;23.226;2024-02-14T01:42:49;100319.78;;;3.56;80.58
56241;BME280;42155;53.096;23.226;2024-02-14T01:44:53;100317.00;;;3.59;80.99
56241;BME280;42155;53.096;23.226;2024-02-14T01:46:53;100294.66;;;3.50;81.03
56241;BME280;42155;53.096;23.226;2024-02-14T01:48:54;100326.31;;;3.66;81.26
56241;BME280;42155;53.096;23.226;2024-02-14T01:50:54;100302.91;;;3.62;80.50
56241;BME280;42155;53.096;23.226;2024-02-14T01:52:58;100321.06;;;3.66;80.92
56241;BME280;42155;53.096;23.226;2024-02-14T01:54:58;100316.78;;;3.64;80.86
56241;BME280;42155;53.096;23.226;2024-02-14T01:57:00;100321.59;;;3.73;80.96
56241;BME280;42155;53.096;23.226;2024-02-14T01:59:01;100318.97;;;3.73;80.89
56241;BME280;42155;53.096;23.226;2024-02-14T02:01:02;100322.44;;;3.73;80.53
56241;BME280;42155;53.096;23.226;2024-02-14T02:03:03;100328.28;;;3.80;81.00
56241;BME280;42155;53.096;23.226;2024-02-14T02:05:03;100316.34;;;3.73;80.38
56241;BME280;42155;53.096;23.226;2024-02-14T02:07:04;100335.22;;;3.81;80.90
56241;BME280;42155;53.096;23.226;2024-02-14T02:09:04;100321.47;;;3.76;80.22
56241;BME280;42155;53.096;23.226;2024-02-14T02:11:05;100289.81;;;3.60;80.55
56241;BME280;42155;53.096;23.226;2024-02-14T02:13:05;100335.22;;;3.81;80.52
56241;BME280;42155;53.096;23.226;2024-02-14T02:15:06;100343.88;;;3.83;80.59
56241;BME280;42155;53.096;23.226;2024-02-14T02:17:07;100346.78;;;3.77;80.87
56241;BME280;42155;53.096;23.226;2024-02-14T02:19:08;100350.97;;;3.81;80.50
56241;BME280;42155;53.096;23.226;2024-02-14T02:21:09;100324.75;;;3.62;80.51
56241;BME280;42155;53.096;23.226;2024-02-14T02:23:12;100352.69;;;3.82;80.04
56241;BME280;42155;53.096;23.226;2024-02-14T02:25:13;100348.38;;;3.81;80.58
56241;BME280;42155;53.096;23.226;2024-02-14T02:27:13;100352.69;;;3.82;80.51
56241;BME280;42155;53.096;23.226;2024-02-14T02:29:14;100345.88;;;3.78;80.22
56241;BME280;42155;53.096;23.226;2024-02-14T02:31:14;100330.41;;;3.72;80.16
56241;BME280;42155;53.096;23.226;2024-02-14T02:33:14;100352.81;;;3.79;80.14
56241;BME280;42155;53.096;23.226;2024-02-14T02:35:15;100363.06;;;3.85;80.48
56241;BME280;42155;53.096;23.226;2024-02-14T02:37:15;100375.25;;;3.86;80.13
56241;BME280;42155;53.096;23.226;2024-02-14T02:39:16;100361.34;;;3.84;80.06
56241;BME280;42155;53.096;23.226;2024-02-14T02:41:16;100358.94;;;3.79;80.24
56241;BME280;42155;53.096;23.226;2024-02-14T02:43:16;100362.88;;;3.88;80.45
56241;BME280;42155;53.096;23.226;2024-02-14T02:45:17;100362.88;;;3.88;80.40
56241;BME280;42155;53.096;23.226;2024-02-14T02:47:18;100355.38;;;3.80;80.83
56241;BME280;42155;53.096;23.226;2024-02-14T02:49:18;100363.19;;;3.82;80.32
56241;BME280;42155;53.096;23.226;2024-02-14T02:51:19;100324.16;;;3.55;80.53
56241;BME280;42155;53.096;23.226;2024-02-14T02:53:19;100375.16;;;3.88;80.59
56241;BME280;42155;53.096;23.226;2024-02-14T02:55:20;100342.38;;;3.58;80.17
56241;BME280;42155;53.096;23.226;2024-02-14T02:57:20;100375.25;;;3.86;80.25
56241;BME280;42155;53.096;23.226;2024-02-14T02:59:21;100337.78;;;3.64;80.37
56241;BME280;42155;53.096;23.226;2024-02-14T03:01:21;100375.31;;;3.85;80.56
56241;BME280;42155;53.096;23.226;2024-02-14T03:03:22;100364.25;;;3.78;80.90
56241;BME280;42155;53.096;23.226;2024-02-14T03:05:22;100386.69;;;3.85;81.33
56241;BME280;42155;53.096;23.226;2024-02-14T03:07:22;100379.06;;;3.79;80.59
56241;BME280;42155;53.096;23.226;2024-02-14T03:09:22;100377.03;;;3.86;80.64
56241;BME280;42155;53.096;23.226;2024-02-14T03:11:23;100376.94;;;3.87;80.74
56241;BME280;42155;53.096;23.226;2024-02-14T03:13:23;100367.72;;;3.78;80.79
56241;BME280;42155;53.096;23.226;2024-02-14T03:15:24;100370.00;;;3.86;81.03
56241;BME280;42155;53.096;23.226;2024-02-14T03:17:24;100383.13;;;3.86;80.86
56241;BME280;42155;53.096;23.226;2024-02-14T03:19:24;100376.00;;;3.88;80.83
56241;BME280;42155;53.096;23.226;2024-02-14T03:21:25;100388.25;;;3.89;80.88
56241;BME280;42155;53.096;23.226;2024-02-14T03:23:25;100383.88;;;3.88;81.37
56241;BME280;42155;53.096;23.226;2024-02-14T03:25:26;100385.97;;;3.81;80.78
56241;BME280;42155;53.096;23.226;2024-02-14T03:27:26;100377.38;;;3.78;80.78
56241;BME280;42155;53.096;23.226;2024-02-14T03:29:26;100385.88;;;3.83;81.18
56241;BME280;42155;53.096;23.226;2024-02-14T03:31:27;100388.59;;;3.81;81.55
56241;BME280;42155;53.096;23.226;2024-02-14T03:33:27;100379.94;;;3.79;81.53
56241;BME280;42155;53.096;23.226;2024-02-14T03:35:27;100385.88;;;3.83;81.13
56241;BME280;42155;53.096;23.226;2024-02-14T03:37:28;100372.06;;;3.79;80.94
56241;BME280;42155;53.096;23.226;2024-02-14T03:39:29;100361.91;;;3.72;80.93
56241;BME280;42155;53.096;23.226;2024-02-14T03:41:30;100385.75;;;3.86;80.59
56241;BME280;42155;53.096;23.226;2024-02-14T03:43:30;100379.00;;;3.80;81.36
56241;BME280;42155;53.096;23.226;2024-02-14T03:45:30;100386.03;;;3.80;81.49
56241;BME280;42155;53.096;23.226;2024-02-14T03:47:34;100390.28;;;3.82;81.03
56241;BME280;42155;53.096;23.226;2024-02-14T03:49:35;100387.88;;;3.78;81.30
56241;BME280;42155;53.096;23.226;2024-02-14T03:51:36;100405.31;;;3.79;80.88
56241;BME280;42155;53.096;23.226;2024-02-14T03:53:37;100387.03;;;3.77;80.85
56241;BME280;42155;53.096;23.226;2024-02-14T03:55:37;100374.53;;;3.64;81.08
56241;BME280;42155;53.096;23.226;2024-02-14T03:57:38;100368.56;;;3.60;81.26
56241;BME280;42155;53.096;23.226;2024-02-14T03:59:39;100381.53;;;3.63;80.85
56241;BME280;42155;53.096;23.226;2024-02-14T04:01:44;100398.22;;;3.62;80.87
56241;BME280;42155;53.096;23.226;2024-02-14T04:03:45;100377.91;;;3.47;81.43
56241;BME280;42155;53.096;23.226;2024-02-14T04:05:47;100409.00;;;3.56;81.22
56241;BME280;42155;53.096;23.226;2024-02-14T04:07:47;100375.63;;;3.39;81.11
56241;BME280;42155;53.096;23.226;2024-02-14T04:09:48;100401.34;;;3.51;80.85
56241;BME280;42155;53.096;23.226;2024-02-14T04:11:49;100405.97;;;3.45;80.92
56241;BME280;42155;53.096;23.226;2024-02-14T04:13:50;100396.75;;;3.36;81.55
56241;BME280;42155;53.096;23.226;2024-02-14T04:15:50;100405.53;;;3.35;80.99
56241;BME280;42155;53.096;23.226;2024-02-14T04:17:51;100399.00;;;3.25;81.07
56241;BME280;42155;53.096;23.226;2024-02-14T04:19:51;100410.41;;;3.24;81.42
56241;BME280;42155;53.096;23.226;2024-02-14T04:21:52;100386.88;;;3.02;80.92
56241;BME280;42155;53.096;23.226;2024-02-14T04:23:53;100399.31;;;2.97;81.12
56241;BME280;42155;53.096;23.226;2024-02-14T04:25:53;100401.97;;;2.95;80.80
56241;BME280;42155;53.096;23.226;2024-02-14T04:27:54;100402.13;;;2.92;81.61
56241;BME280;42155;53.096;23.226;2024-02-14T04:29:54;100415.75;;;3.00;80.87
56241;BME280;42155;53.096;23.226;2024-02-14T04:31:55;100407.50;;;2.89;80.74
56241;BME280;42155;53.096;23.226;2024-02-14T04:33:55;100413.59;;;2.90;81.38
56241;BME280;42155;53.096;23.226;2024-02-14T04:35:56;100420.72;;;2.86;81.31
56241;BME280;42155;53.096;23.226;2024-02-14T04:37:56;100423.47;;;2.83;80.81
56241;BME280;42155;53.096;23.226;2024-02-14T04:39:57;100425.44;;;2.78;81.25
56241;BME280;42155;53.096;23.226;2024-02-14T04:41:57;100417.78;;;2.73;81.45
56241;BME280;42155;53.096;23.226;2024-02-14T04:43:57;100429.94;;;2.74;81.12
56241;BME280;42155;53.096;23.226;2024-02-14T04:45:58;100402.78;;;2.55;81.15
56241;BME280;42155;53.096;23.226;2024-02-14T04:47:58;100412.16;;;2.61;81.05
56241;BME280;42155;53.096;23.226;2024-02-14T04:49:58;100436.03;;;2.75;80.98
56241;BME280;42155;53.096;23.226;2024-02-14T04:51:59;100411.34;;;2.59;81.36
56241;BME280;42155;53.096;23.226;2024-02-14T04:53:59;100441.28;;;2.75;81.36
56241;BME280;42155;53.096;23.226;2024-02-14T04:56:00;100447.38;;;2.75;81.77
56241;BME280;42155;53.096;23.226;2024-02-14T04:58:00;100452.78;;;2.71;81.35
56241;BME280;42155;53.096;23.226;2024-02-14T05:00:01;100433.88;;;2.64;81.66
56241;BME280;42155;53.096;23.226;2024-02-14T05:02:02;100444.81;;;2.74;81.76
56241;BME280;42155;53.096;23.226;2024-02-14T05:04:03;100442.44;;;2.68;81.53
56241;BME280;42155;53.096;23.226;2024-02-14T05:06:03;100455.31;;;2.74;81.06
56241;BME280;42155;53.096;23.226;2024-02-14T05:08:04;100456.22;;;2.73;81.24
56241;BME280;42155;53.096;23.226;2024-02-14T05:10:05;100445.56;;;2.55;81.65
56241;BME280;42155;53.096;23.226;2024-02-14T05:12:06;100463.28;;;2.71;81.75
56241;BME280;42155;53.096;23.226;2024-02-14T05:14:06;100459.88;;;2.69;81.81
56241;BME280;42155;53.096;23.226;2024-02-14T05:16:07;100441.06;;;2.59;81.33
56241;BME280;42155;53.096;23.226;2024-02-14T05:18:07;100470.22;;;2.72;81.40
56241;BME280;42155;53.096;23.226;2024-02-14T05:20:08;100450.53;;;2.62;81.81
56241;BME280;42155;53.096;23.226;2024-02-14T05:22:09;100466.72;;;2.73;81.67
56241;BME280;42155;53.096;23.226;2024-02-14T05:24:10;100465.91;;;2.71;81.13
56241;BME280;42155;53.096;23.226;2024-02-14T05:26:11;100366.66;;;2.19;81.77
56241;BME280;42155;53.096;23.226;2024-02-14T05:28:12;100463.94;;;2.76;81.64
56241;BME280;42155;53.096;23.226;2024-02-14T05:30:12;100459.44;;;2.79;81.84
56241;BME280;42155;53.096;23.226;2024-02-14T05:32:13;100459.63;;;2.75;81.57
56241;BME280;42155;53.096;23.226;2024-02-14T05:34:14;100440.69;;;2.68;81.63
56241;BME280;42155;53.096;23.226;2024-02-14T05:36:14;100427.78;;;2.64;81.38
56241;BME280;42155;53.096;23.226;2024-02-14T05:38:15;100436.47;;;2.64;81.68
56241;BME280;42155;53.096;23.226;2024-02-14T05:40:16;100461.22;;;2.79;81.44
56241;BME280;42155;53.096;23.226;2024-02-14T05:42:17;100458.84;;;2.73;81.81
56241;BME280;42155;53.096;23.226;2024-02-14T05:44:17;100459.69;;;2.73;81.59
56241;BME280;42155;53.096;23.226;2024-02-14T05:46:18;100477.97;;;2.75;82.05
56241;BME280;42155;53.096;23.226;2024-02-14T05:48:19;100445.38;;;2.38;82.19
56241;BME280;42155;53.096;23.226;2024-02-14T05:50:20;100481.69;;;2.47;82.84
56241;BME280;42155;53.096;23.226;2024-02-14T05:52:20;100487.69;;;2.49;83.01
56241;BME280;42155;53.096;23.226;2024-02-14T05:54:21;100484.03;;;2.53;82.40
56241;BME280;42155;53.096;23.226;2024-02-14T05:56:22;100481.44;;;2.53;82.99
56241;BME280;42155;53.096;23.226;2024-02-14T05:58:23;100461.84;;;2.40;82.42
56241;BME280;42155;53.096;23.226;2024-02-14T06:00:23;100484.03;;;2.53;82.56
56241;BME280;42155;53.096;23.226;2024-02-14T06:02:24;100479.66;;;2.54;81.77
56241;BME280;42155;53.096;23.226;2024-02-14T06:04:25;100488.44;;;2.53;81.91
56241;BME280;42155;53.096;23.226;2024-02-14T06:06:25;100450.28;;;2.24;81.74
56241;BME280;42155;53.096;23.226;2024-02-14T06:08:26;100479.66;;;2.32;82.50
56241;BME280;42155;53.096;23.226;2024-02-14T06:10:27;100495.81;;;2.43;82.59
56241;BME280;42155;53.096;23.226;2024-02-14T06:12:27;100501.13;;;2.42;81.73
56241;BME280;42155;53.096;23.226;2024-02-14T06:14:28;100474.59;;;2.27;81.89
56241;BME280;42155;53.096;23.226;2024-02-14T06:16:29;100479.88;;;2.26;81.92
56241;BME280;42155;53.096;23.226;2024-02-14T06:18:30;100491.84;;;2.33;81.99
56241;BME280;42155;53.096;23.226;2024-02-14T06:20:31;100512.44;;;2.42;81.23
56241;BME280;42155;53.096;23.226;2024-02-14T06:22:32;100511.34;;;2.48;82.04
56241;BME280;42155;53.096;23.226;2024-02-14T06:24:32;100508.44;;;2.55;81.23
56241;BME280;42155;53.096;23.226;2024-02-14T06:26:33;100489.44;;;2.50;81.11
56241;BME280;42155;53.096;23.226;2024-02-14T06:28:34;100505.69;;;2.59;81.22
56241;BME280;42155;53.096;23.226;2024-02-14T06:30:34;100519.91;;;2.75;80.92
56241;BME280;42155;53.096;23.226;2024-02-14T06:32:35;100510.28;;;2.75;80.83
56241;BME280;42155;53.096;23.226;2024-02-14T06:34:35;100521.50;;;2.79;80.90
56241;BME280;42155;53.096;23.226;2024-02-14T06:36:36;100509.00;;;2.64;80.57
56241;BME280;42155;53.096;23.226;2024-02-14T06:38:37;100492.75;;;2.54;80.46
56241;BME280;42155;53.096;23.226;2024-02-14T06:40:37;100502.03;;;2.63;80.45
56241;BME280;42155;53.096;23.226;2024-02-14T06:42:38;100531.00;;;2.81;80.05
56241;BME280;42155;53.096;23.226;2024-02-14T06:44:38;100536.84;;;2.88;80.14
56241;BME280;42155;53.096;23.226;2024-02-14T06:46:39;100509.66;;;2.91;80.00
56241;BME280;42155;53.096;23.226;2024-02-14T06:48:39;100518.56;;;3.09;80.24
56241;BME280;42155;53.096;23.226;2024-02-14T06:50:40;100514.41;;;3.25;79.59
56241;BME280;42155;53.096;23.226;2024-02-14T06:52:40;100522.81;;;3.33;79.33
56241;BME280;42155;53.096;23.226;2024-02-14T06:54:40;100525.94;;;3.41;79.63
56241;BME280;42155;53.096;23.226;2024-02-14T06:56:41;100524.97;;;3.44;79.59
56241;BME280;42155;53.096;23.226;2024-02-14T06:58:41;100508.78;;;3.34;79.57
56241;BME280;42155;53.096;23.226;2024-02-14T07:00:41;100527.41;;;3.48;80.02
56241;BME280;42155;53.096;23.226;2024-02-14T07:02:42;100447.81;;;3.07;79.45
56241;BME280;42155;53.096;23.226;2024-02-14T07:04:42;100514.94;;;3.53;80.05
56241;BME280;42155;53.096;23.226;2024-02-14T07:06:43;100488.16;;;3.45;79.58
56241;BME280;42155;53.096;23.226;2024-02-14T07:08:44;100514.44;;;3.66;80.05
56241;BME280;42155;53.096;23.226;2024-02-14T07:10:44;100511.41;;;3.75;79.45
56241;BME280;42155;53.096;23.226;2024-02-14T07:12:44;100499.56;;;3.85;79.57
56241;BME280;42155;53.096;23.226;2024-02-14T07:14:46;100467.88;;;3.69;79.88
56241;BME280;42155;53.096;23.226;2024-02-14T07:16:46;100495.63;;;3.95;79.50
56241;BME280;42155;53.096;23.226;2024-02-14T07:18:50;100486.75;;;3.98;79.46
56241;BME280;42155;53.096;23.226;2024-02-14T07:20:50;100484.69;;;4.04;79.59
56241;BME280;42155;53.096;23.226;2024-02-14T07:22:50;100492.03;;;4.17;79.57
56241;BME280;42155;53.096;23.226;2024-02-14T07:24:51;100508.00;;;4.31;79.44
56241;BME280;42155;53.096;23.226;2024-02-14T07:26:51;100498.91;;;4.38;79.08
56241;BME280;42155;53.096;23.226;2024-02-14T07:28:52;100507.44;;;4.43;78.80
56241;BME280;42155;53.096;23.226;2024-02-14T07:30:52;100503.47;;;4.53;78.71
56241;BME280;42155;53.096;23.226;2024-02-14T07:32:52;100503.50;;;4.71;78.85
56241;BME280;42155;53.096;23.226;2024-02-14T07:34:53;100507.59;;;4.95;78.82
56241;BME280;42155;53.096;23.226;2024-02-14T07:36:53;100493.00;;;5.07;77.65
56241;BME280;42155;53.096;23.226;2024-02-14T07:38:54;100510.59;;;5.41;77.14
56241;BME280;42155;53.096;23.226;2024-02-14T07:40:54;100504.41;;;5.59;77.09
56241;BME280;42155;53.096;23.226;2024-02-14T07:42:54;100460.41;;;5.44;76.98
56241;BME280;42155;53.096;23.226;2024-02-14T07:44:55;100513.56;;;5.85;76.96
56241;BME280;42155;53.096;23.226;2024-02-14T07:46:55;100497.41;;;5.93;76.29
56241;BME280;42155;53.096;23.226;2024-02-14T07:48:55;100509.28;;;6.18;76.07
56241;BME280;42155;53.096;23.226;2024-02-14T07:50:56;100512.81;;;6.34;75.86
56241;BME280;42155;53.096;23.226;2024-02-14T07:52:57;100516.38;;;6.49;75.21
56241;BME280;42155;53.096;23.226;2024-02-14T07:54:57;100512.84;;;6.66;75.07
56241;BME280;42155;53.096;23.226;2024-02-14T07:56:58;100506.84;;;6.78;74.71
56241;BME280;42155;53.096;23.226;2024-02-14T07:58:58;100511.03;;;6.82;74.73
56241;BME280;42155;53.096;23.226;2024-02-14T08:00:59;100493.16;;;6.87;74.41
56241;BME280;42155;53.096;23.226;2024-02-14T08:02:59;100496.03;;;6.98;73.89
56241;BME280;42155;53.096;23.226;2024-02-14T08:05:00;100512.00;;;7.27;73.41
56241;BME280;42155;53.096;23.226;2024-02-14T08:07:00;100514.09;;;7.36;72.78
56241;BME280;42155;53.096;23.226;2024-02-14T08:09:01;100480.75;;;7.19;73.00
56241;BME280;42155;53.096;23.226;2024-02-14T08:11:01;100511.94;;;7.43;72.32
56241;BME280;42155;53.096;23.226;2024-02-14T08:13:01;100518.09;;;7.57;72.56
56241;BME280;42155;53.096;23.226;2024-02-14T08:15:02;100510.09;;;7.59;71.83
56241;BME280;42155;53.096;23.226;2024-02-14T08:17:03;100512.25;;;7.52;71.84
56241;BME280;42155;53.096;23.226;2024-02-14T08:19:03;100517.34;;;7.55;71.64
56241;BME280;42155;53.096;23.226;2024-02-14T08:21:04;100460.06;;;7.11;71.85
56241;BME280;42155;53.096;23.226;2024-02-14T08:23:04;100515.09;;;7.49;71.88
56241;BME280;42155;53.096;23.226;2024-02-14T08:25:05;100517.78;;;7.48;71.96
56241;BME280;42155;53.096;23.226;2024-02-14T08:27:06;100470.69;;;7.26;71.89
56241;BME280;42155;53.096;23.226;2024-02-14T08:29:06;100482.00;;;7.28;71.48
56241;BME280;42155;53.096;23.226;2024-02-14T08:31:10;100518.56;;;7.50;71.82
56241;BME280;42155;53.096;23.226;2024-02-14T08:33:11;100520.09;;;7.54;71.96
56241;BME280;42155;53.096;23.226;2024-02-14T08:35:11;100501.88;;;7.49;71.74
56241;BME280;42155;53.096;23.226;2024-02-14T08:37:12;100522.63;;;7.55;71.33
56241;BME280;42155;53.096;23.226;2024-02-14T08:39:12;100523.66;;;7.53;71.90
56241;BME280;42155;53.096;23.226;2024-02-14T08:41:14;100516.00;;;7.48;71.80
56241;BME280;42155;53.096;23.226;2024-02-14T08:43:15;100519.41;;;7.50;71.37
56241;BME280;42155;53.096;23.226;2024-02-14T08:45:15;100518.94;;;7.58;71.58
56241;BME280;42155;53.096;23.226;2024-02-14T08:47:15;100514.75;;;7.70;70.98
56241;BME280;42155;53.096;23.226;2024-02-14T08:49:16;100513.25;;;7.80;70.73
56241;BME280;42155;53.096;23.226;2024-02-14T08:51:16;100489.28;;;7.69;70.67
56241;BME280;42155;53.096;23.226;2024-02-14T08:53:16;100516.44;;;7.85;70.35
56241;BME280;42155;53.096;23.226;2024-02-14T08:55:17;100518.06;;;7.87;70.29
56241;BME280;42155;53.096;23.226;2024-02-14T08:57:17;100502.88;;;7.91;69.68
56241;BME280;42155;53.096;23.226;2024-02-14T08:59:18;100504.75;;;7.89;70.26
56241;BME280;42155;53.096;23.226;2024-02-14T09:01:18;100508.53;;;7.99;69.85
56241;BME280;42155;53.096;23.226;2024-02-14T09:03:19;100505.91;;;7.99;69.94
56241;BME280;42155;53.096;23.226;2024-02-14T09:05:19;100518.47;;;8.10;69.56
56241;BME280;42155;53.096;23.226;2024-02-14T09:07:20;100467.75;;;7.89;69.57
56241;BME280;42155;53.096;23.226;2024-02-14T09:09:20;100493.16;;;8.20;68.91
56241;BME280;42155;53.096;23.226;2024-02-14T09:11:21;100509.47;;;8.27;69.15
56241;BME280;42155;53.096;23.226;2024-02-14T09:13:22;100514.41;;;8.33;68.65
56241;BME280;42155;53.096;23.226;2024-02-14T09:15:22;100504.88;;;8.30;68.60
56241;BME280;42155;53.096;23.226;2024-02-14T09:17:22;100511.22;;;8.28;68.43
56241;BME280;42155;53.096;23.226;2024-02-14T09:19:23;100507.50;;;8.16;68.80
56241;BME280;42155;53.096;23.226;2024-02-14T09:21:24;100501.94;;;8.21;68.80
56241;BME280;42155;53.096;23.226;2024-02-14T09:23:26;100508.75;;;8.39;68.08
56241;BME280;42155;53.096;23.226;2024-02-14T09:25:27;100515.38;;;8.46;68.17
56241;BME280;42155;53.096;23.226;2024-02-14T09:27:28;100514.97;;;8.52;68.21
56241;BME280;42155;53.096;23.226;2024-02-14T09:29:28;100519.13;;;8.56;68.05
56241;BME280;42155;53.096;23.226;2024-02-14T09:31:29;100516.09;;;8.62;67.94
56241;BME280;42155;53.096;23.226;2024-02-14T09:33:30;100501.53;;;8.70;67.81
56241;BME280;42155;53.096;23.226;2024-02-14T09:35:30;100515.88;;;8.80;67.44
56241;BME280;42155;53.096;23.226;2024-02-14T09:37:31;100460.47;;;8.50;67.26
56241;BME280;42155;53.096;23.226;2024-02-14T09:39:32;100518.13;;;8.86;67.25
56241;BME280;42155;53.096;23.226;2024-02-14T09:41:41;100521.31;;;8.91;67.05
56241;BME280;42155;53.096;23.226;2024-02-14T09:43:45;100520.94;;;8.97;66.46
56241;BME280;42155;53.096;23.226;2024-02-14T09:45:46;100531.00;;;9.05;66.47
56241;BME280;42155;53.096;23.226;2024-02-14T09:47:48;100513.13;;;9.08;66.46
56241;BME280;42155;53.096;23.226;2024-02-14T09:49:49;100512.19;;;9.09;66.08
56241;BME280;42155;53.096;23.226;2024-02-14T09:51:52;100494.19;;;9.14;66.39
56241;BME280;42155;53.096;23.226;2024-02-14T09:53:54;100516.50;;;9.37;66.30
56241;BME280;42155;53.096;23.226;2024-02-14T09:55:55;100512.38;;;9.46;65.68
56241;BME280;42155;53.096;23.226;2024-02-14T09:57:56;100490.97;;;9.36;65.07
56241;BME280;42155;53.096;23.226;2024-02-14T09:59:59;100525.09;;;9.41;65.21
56241;BME280;42155;53.096;23.226;2024-02-14T10:02:00;100507.41;;;9.41;65.05
56241;BME280;42155;53.096;23.226;2024-02-14T10:04:01;100503.72;;;9.44;64.88
56241;BME280;42155;53.096;23.226;2024-02-14T10:06:01;100492.22;;;9.31;64.77
56241;BME280;42155;53.096;23.226;2024-02-14T10:08:02;100521.59;;;9.40;64.36
56241;BME280;42155;53.096;23.226;2024-02-14T10:10:07;100490.72;;;9.27;64.33
56241;BME280;42155;53.096;23.226;2024-02-14T10:12:08;100506.00;;;9.36;64.33
56241;BME280;42155;53.096;23.226;2024-02-14T10:14:09;100507.19;;;9.44;64.27
56241;BME280;42155;53.096;23.226;2024-02-14T10:16:09;100501.59;;;9.49;63.86
56241;BME280;42155;53.096;23.226;2024-02-14T10:18:10;100491.00;;;9.49;63.36
56241;BME280;42155;53.096;23.226;2024-02-14T10:20:16;100506.94;;;9.62;63.38
56241;BME280;42155;53.096;23.226;2024-02-14T10:22:17;100497.91;;;9.64;63.36
56241;BME280;42155;53.096;23.226;2024-02-14T10:24:17;100494.00;;;9.57;62.99
56241;BME280;42155;53.096;23.226;2024-02-14T10:26:18;100504.88;;;9.65;62.96
56241;BME280;42155;53.096;23.226;2024-02-14T10:28:20;100513.19;;;9.74;62.67
56241;BME280;42155;53.096;23.226;2024-02-14T10:30:21;100508.09;;;9.83;62.74